sensor_id;sensor_type;location;lat;lon;timestamp;P1;durP1;ratioP1;P2;durP2;ratioP2
60312;SDS011;46158;52.850;6.970;2023-07-30T00:01:54;5.22;;;2.40;;
60312;SDS011;46158;52.850;6.970;2023-07-30T00:04:20;4.82;;;2.50;;
60312;SDS011;46158;52.850;6.970;2023-07-30T00:06:46;4.97;;;2.40;;
60312;SDS011;46158;52.850;6.970;2023-07-30T00:09:12;8.77;;;2.58;;
60312;SDS011;46158;52.850;6.970;2023-07-30T00:11:37;4.03;;;2.40;;
60312;SDS011;46158;52.850;6.970;2023-07-30T00:14:03;5.38;;;2.45;;
60312;SDS011;46158;52.850;6.970;2023-07-30T00:16:29;5.88;;;2.42;;
60312;SDS011;46158;52.850;6.970;2023-07-30T00:18:55;5.85;;;2.63;;
60312;SDS011;46158;52.850;6.970;2023-07-30T00:21:21;5.78;;;2.50;;
60312;SDS011;46158;52.850;6.970;2023-07-30T00:23:47;11.43;;;2.65;;
60312;SDS011;46158;52.850;6.970;2023-07-30T00:26:13;4.97;;;2.65;;
60312;SDS011;46158;52.850;6.970;2023-07-30T00:28:39;5.00;;;2.40;;
60312;SDS011;46158;52.850;6.970;2023-07-30T00:31:05;6.30;;;2.40;;
60312;SDS011;46158;52.850;6.970;2023-07-30T00:33:30;6.30;;;2.60;;
60312;SDS011;46158;52.850;6.970;2023-07-30T00:35:56;6.07;;;2.63;;
60312;SDS011;46158;52.850;6.970;2023-07-30T00:38:22;5.22;;;2.42;;
60312;SDS011;46158;52.850;6.970;2023-07-30T00:40:48;4.63;;;2.53;;
60312;SDS011;46158;52.850;6.970;2023-07-30T00:43:14;7.10;;;2.80;;
60312;SDS011;46158;52.850;6.970;2023-07-30T00:45:42;5.15;;;2.30;;
60312;SDS011;46158;52.850;6.970;2023-07-30T00:48:09;5.33;;;2.53;;
60312;SDS011;46158;52.850;6.970;2023-07-30T00:50:36;4.65;;;2.40;;
60312;SDS011;46158;52.850;6.970;2023-07-30T00:53:03;4.65;;;2.50;;
60312;SDS011;46158;52.850;6.970;2023-07-30T00:55:29;4.53;;;2.58;;
60312;SDS011;46158;52.850;6.970;2023-07-30T00:57:55;5.43;;;2.67;;
60312;SDS011;46158;52.850;6.970;2023-07-30T01:00:22;4.80;;;2.58;;
60312;SDS011;46158;52.850;6.970;2023-07-30T01:02:50;5.53;;;2.50;;
60312;SDS011;46158;52.850;6.970;2023-07-30T01:05:16;5.88;;;2.40;;
60312;SDS011;46158;52.850;6.970;2023-07-30T01:07:42;7.07;;;2.90;;
60312;SDS011;46158;52.850;6.970;2023-07-30T01:10:08;4.63;;;2.55;;
60312;SDS011;46158;52.850;6.970;2023-07-30T01:12:34;4.88;;;2.40;;
60312;SDS011;46158;52.850;6.970;2023-07-30T01:15:01;6.72;;;2.50;;
60312;SDS011;46158;52.850;6.970;2023-07-30T01:17:28;6.25;;;2.47;;
60312;SDS011;46158;52.850;6.970;2023-07-30T01:19:54;4.95;;;2.53;;
60312;SDS011;46158;52.850;6.970;2023-07-30T01:22:20;4.70;;;2.60;;
60312;SDS011;46158;52.850;6.970;2023-07-30T01:24:46;4.53;;;2.50;;
60312;SDS011;46158;52.850;6.970;2023-07-30T01:27:22;7.65;;;2.60;;
60312;SDS011;46158;52.850;6.970;2023-07-30T01:30:00;6.43;;;2.70;;
60312;SDS011;46158;52.850;6.970;2023-07-30T01:32:31;5.88;;;2.58;;
60312;SDS011;46158;52.850;6.970;2023-07-30T01:34:59;5.47;;;2.45;;
60312;SDS011;46158;52.850;6.970;2023-07-30T01:37:27;4.38;;;2.45;;
60312;SDS011;46158;52.850;6.970;2023-07-30T01:39:54;5.68;;;2.60;;
60312;SDS011;46158;52.850;6.970;2023-07-30T01:42:21;6.55;;;2.60;;
60312;SDS011;46158;52.850;6.970;2023-07-30T01:44:46;4.85;;;2.47;;
60312;SDS011;46158;52.850;6.970;2023-07-30T01:47:12;4.40;;;2.55;;
60312;SDS011;46158;52.850;6.970;2023-07-30T01:49:38;6.32;;;2.60;;
60312;SDS011;46158;52.850;6.970;2023-07-30T01:52:03;6.75;;;2.65;;
60312;SDS011;46158;52.850;6.970;2023-07-30T01:54:29;5.53;;;2.60;;
60312;SDS011;46158;52.850;6.970;2023-07-30T01:56:55;6.28;;;2.40;;
60312;SDS011;46158;52.850;6.970;2023-07-30T01:59:20;4.30;;;2.50;;
60312;SDS011;46158;52.850;6.970;2023-07-30T02:01:46;7.35;;;2.50;;
60312;SDS011;46158;52.850;6.970;2023-07-30T02:04:12;5.05;;;2.50;;
60312;SDS011;46158;52.850;6.970;2023-07-30T02:06:37;5.35;;;2.53;;
60312;SDS011;46158;52.850;6.970;2023-07-30T02:09:03;6.22;;;2.67;;
60312;SDS011;46158;52.850;6.970;2023-07-30T02:11:29;7.50;;;2.63;;
60312;SDS011;46158;52.850;6.970;2023-07-30T02:13:54;5.38;;;2.60;;
60312;SDS011;46158;52.850;6.970;2023-07-30T02:16:20;4.22;;;2.45;;
60312;SDS011;46158;52.850;6.970;2023-07-30T02:18:46;6.53;;;2.65;;
60312;SDS011;46158;52.850;6.970;2023-07-30T02:21:12;5.72;;;2.60;;
60312;SDS011;46158;52.850;6.970;2023-07-30T02:23:38;4.53;;;2.42;;
60312;SDS011;46158;52.850;6.970;2023-07-30T02:26:03;7.55;;;2.60;;
60312;SDS011;46158;52.850;6.970;2023-07-30T02:28:29;3.90;;;2.38;;
60312;SDS011;46158;52.850;6.970;2023-07-30T02:30:55;5.45;;;2.72;;
60312;SDS011;46158;52.850;6.970;2023-07-30T02:33:20;5.03;;;2.47;;
60312;SDS011;46158;52.850;6.970;2023-07-30T02:35:46;4.95;;;2.30;;
60312;SDS011;46158;52.850;6.970;2023-07-30T02:38:12;3.75;;;2.20;;
60312;SDS011;46158;52.850;6.970;2023-07-30T02:40:37;4.97;;;2.30;;
60312;SDS011;46158;52.850;6.970;2023-07-30T02:43:03;5.35;;;2.30;;
60312;SDS011;46158;52.850;6.970;2023-07-30T02:45:29;5.07;;;2.45;;
60312;SDS011;46158;52.850;6.970;2023-07-30T02:47:54;5.88;;;2.50;;
60312;SDS011;46158;52.850;6.970;2023-07-30T02:50:20;5.15;;;2.53;;
60312;SDS011;46158;52.850;6.970;2023-07-30T02:52:46;5.25;;;2.40;;
60312;SDS011;46158;52.850;6.970;2023-07-30T02:55:11;3.85;;;2.38;;
60312;SDS011;46158;52.850;6.970;2023-07-30T02:57:37;6.13;;;2.60;;
60312;SDS011;46158;52.850;6.970;2023-07-30T03:00:03;4.85;;;2.30;;
60312;SDS011;46158;52.850;6.970;2023-07-30T03:02:29;5.25;;;2.40;;
60312;SDS011;46158;52.850;6.970;2023-07-30T03:04:55;4.30;;;2.30;;
60312;SDS011;46158;52.850;6.970;2023-07-30T03:07:21;5.40;;;2.58;;
60312;SDS011;46158;52.850;6.970;2023-07-30T03:09:47;5.80;;;2.75;;
60312;SDS011;46158;52.850;6.970;2023-07-30T03:12:13;5.15;;;2.40;;
60312;SDS011;46158;52.850;6.970;2023-07-30T03:14:38;4.78;;;2.20;;
60312;SDS011;46158;52.850;6.970;2023-07-30T03:17:04;4.97;;;2.20;;
60312;SDS011;46158;52.850;6.970;2023-07-30T03:19:31;4.80;;;2.22;;
60312;SDS011;46158;52.850;6.970;2023-07-30T03:21:57;3.72;;;2.40;;
60312;SDS011;46158;52.850;6.970;2023-07-30T03:24:23;5.32;;;2.40;;
60312;SDS011;46158;52.850;6.970;2023-07-30T03:26:48;7.25;;;2.40;;
60312;SDS011;46158;52.850;6.970;2023-07-30T03:29:14;4.40;;;2.20;;
60312;SDS011;46158;52.850;6.970;2023-07-30T03:31:41;5.10;;;2.38;;
60312;SDS011;46158;52.850;6.970;2023-07-30T03:34:07;5.35;;;2.30;;
60312;SDS011;46158;52.850;6.970;2023-07-30T03:36:33;5.35;;;2.30;;
60312;SDS011;46158;52.850;6.970;2023-07-30T03:38:59;4.10;;;2.20;;
60312;SDS011;46158;52.850;6.970;2023-07-30T03:41:25;4.70;;;2.20;;
60312;SDS011;46158;52.850;6.970;2023-07-30T03:43:50;4.57;;;2.38;;
60312;SDS011;46158;52.850;6.970;2023-07-30T03:46:16;3.72;;;2.22;;
60312;SDS011;46158;52.850;6.970;2023-07-30T03:48:42;5.88;;;2.33;;
60312;SDS011;46158;52.850;6.970;2023-07-30T03:51:08;5.20;;;2.45;;
60312;SDS011;46158;52.850;6.970;2023-07-30T03:53:34;4.65;;;2.25;;
60312;SDS011;46158;52.850;6.970;2023-07-30T03:55:59;6.97;;;2.40;;
60312;SDS011;46158;52.850;6.970;2023-07-30T03:58:26;3.28;;;2.15;;
60312;SDS011;46158;52.850;6.970;2023-07-30T04:00:51;3.97;;;2.20;;
60312;SDS011;46158;52.850;6.970;2023-07-30T04:03:17;6.47;;;2.50;;
60312;SDS011;46158;52.850;6.970;2023-07-30T04:05:43;6.82;;;2.42;;
60312;SDS011;46158;52.850;6.970;2023-07-30T04:08:08;4.47;;;2.30;;
60312;SDS011;46158;52.850;6.970;2023-07-30T04:10:34;4.55;;;2.30;;
60312;SDS011;46158;52.850;6.970;2023-07-30T04:12:59;5.65;;;2.30;;
60312;SDS011;46158;52.850;6.970;2023-07-30T04:15:25;4.75;;;2.25;;
60312;SDS011;46158;52.850;6.970;2023-07-30T04:17:52;3.67;;;2.35;;
60312;SDS011;46158;52.850;6.970;2023-07-30T04:20:17;6.07;;;2.30;;
60312;SDS011;46158;52.850;6.970;2023-07-30T04:22:43;4.35;;;2.10;;
60312;SDS011;46158;52.850;6.970;2023-07-30T04:25:09;5.60;;;2.30;;
60312;SDS011;46158;52.850;6.970;2023-07-30T04:27:38;5.38;;;2.33;;
60312;SDS011;46158;52.850;6.970;2023-07-30T04:30:04;5.95;;;2.30;;
60312;SDS011;46158;52.850;6.970;2023-07-30T04:32:31;6.07;;;2.25;;
60312;SDS011;46158;52.850;6.970;2023-07-30T04:34:57;7.10;;;2.25;;
60312;SDS011;46158;52.850;6.970;2023-07-30T04:37:22;5.65;;;2.40;;
60312;SDS011;46158;52.850;6.970;2023-07-30T04:39:49;6.60;;;2.65;;
60312;SDS011;46158;52.850;6.970;2023-07-30T04:42:15;5.28;;;2.10;;
60312;SDS011;46158;52.850;6.970;2023-07-30T04:44:40;5.55;;;2.35;;
60312;SDS011;46158;52.850;6.970;2023-07-30T04:47:07;4.13;;;2.30;;
60312;SDS011;46158;52.850;6.970;2023-07-30T04:49:32;4.47;;;2.30;;
60312;SDS011;46158;52.850;6.970;2023-07-30T04:51:59;3.25;;;2.20;;
60312;SDS011;46158;52.850;6.970;2023-07-30T04:54:24;5.80;;;2.38;;
60312;SDS011;46158;52.850;6.970;2023-07-30T04:56:50;3.80;;;2.30;;
60312;SDS011;46158;52.850;6.970;2023-07-30T04:59:16;6.35;;;2.50;;
60312;SDS011;46158;52.850;6.970;2023-07-30T05:01:41;4.85;;;2.30;;
60312;SDS011;46158;52.850;6.970;2023-07-30T05:04:07;5.28;;;2.20;;
60312;SDS011;46158;52.850;6.970;2023-07-30T05:06:34;5.60;;;2.30;;
60312;SDS011;46158;52.850;6.970;2023-07-30T05:09:00;5.25;;;2.28;;
60312;SDS011;46158;52.850;6.970;2023-07-30T05:11:25;4.25;;;2.20;;
60312;SDS011;46158;52.850;6.970;2023-07-30T05:13:51;4.10;;;2.20;;
60312;SDS011;46158;52.850;6.970;2023-07-30T05:16:17;6.07;;;2.33;;
60312;SDS011;46158;52.850;6.970;2023-07-30T05:18:43;6.82;;;2.50;;
60312;SDS011;46158;52.850;6.970;2023-07-30T05:21:10;5.10;;;2.35;;
60312;SDS011;46158;52.850;6.970;2023-07-30T05:23:35;7.57;;;2.50;;
60312;SDS011;46158;52.850;6.970;2023-07-30T05:26:01;8.90;;;2.60;;
60312;SDS011;46158;52.850;6.970;2023-07-30T05:28:26;7.53;;;2.50;;
60312;SDS011;46158;52.850;6.970;2023-07-30T05:30:52;9.00;;;2.90;;
60312;SDS011;46158;52.850;6.970;2023-07-30T05:33:18;11.65;;;2.83;;
60312;SDS011;46158;52.850;6.970;2023-07-30T05:35:43;7.80;;;2.80;;
60312;SDS011;46158;52.850;6.970;2023-07-30T05:38:10;10.57;;;2.70;;
60312;SDS011;46158;52.850;6.970;2023-07-30T05:40:36;8.38;;;2.42;;
60312;SDS011;46158;52.850;6.970;2023-07-30T05:43:02;8.57;;;2.53;;
60312;SDS011;46158;52.850;6.970;2023-07-30T05:45:28;8.60;;;2.90;;
60312;SDS011;46158;52.850;6.970;2023-07-30T05:47:54;21.95;;;8.60;;
60312;SDS011;46158;52.850;6.970;2023-07-30T05:50:20;38.40;;;22.42;;
60312;SDS011;46158;52.850;6.970;2023-07-30T05:52:45;43.42;;;28.13;;
60312;SDS011;46158;52.850;6.970;2023-07-30T05:55:11;58.67;;;41.85;;
60312;SDS011;46158;52.850;6.970;2023-07-30T05:57:37;58.60;;;40.55;;
60312;SDS011;46158;52.850;6.970;2023-07-30T06:00:03;61.35;;;42.53;;
60312;SDS011;46158;52.850;6.970;2023-07-30T06:02:29;62.25;;;41.08;;
60312;SDS011;46158;52.850;6.970;2023-07-30T06:04:54;56.70;;;39.33;;
60312;SDS011;46158;52.850;6.970;2023-07-30T06:07:20;62.03;;;43.47;;
60312;SDS011;46158;52.850;6.970;2023-07-30T06:09:46;70.50;;;46.30;;
60312;SDS011;46158;52.850;6.970;2023-07-30T06:12:11;66.70;;;45.42;;
60312;SDS011;46158;52.850;6.970;2023-07-30T06:14:37;60.95;;;41.13;;
60312;SDS011;46158;52.850;6.970;2023-07-30T06:17:03;61.30;;;42.63;;
60312;SDS011;46158;52.850;6.970;2023-07-30T06:19:28;62.75;;;43.30;;
60312;SDS011;46158;52.850;6.970;2023-07-30T06:21:54;57.00;;;40.42;;
60312;SDS011;46158;52.850;6.970;2023-07-30T06:24:20;61.88;;;41.55;;
60312;SDS011;46158;52.850;6.970;2023-07-30T06:26:45;60.55;;;40.60;;
60312;SDS011;46158;52.850;6.970;2023-07-30T06:29:11;56.90;;;39.03;;
60312;SDS011;46158;52.850;6.970;2023-07-30T06:31:37;60.92;;;41.40;;
60312;SDS011;46158;52.850;6.970;2023-07-30T06:34:02;57.83;;;39.33;;
60312;SDS011;46158;52.850;6.970;2023-07-30T06:36:28;62.95;;;42.03;;
60312;SDS011;46158;52.850;6.970;2023-07-30T06:38:54;56.75;;;40.05;;
60312;SDS011;46158;52.850;6.970;2023-07-30T06:41:20;56.38;;;38.55;;
60312;SDS011;46158;52.850;6.970;2023-07-30T06:43:46;58.13;;;39.78;;
60312;SDS011;46158;52.850;6.970;2023-07-30T06:46:12;60.17;;;41.22;;
60312;SDS011;46158;52.850;6.970;2023-07-30T06:48:37;61.80;;;42.03;;
60312;SDS011;46158;52.850;6.970;2023-07-30T06:51:06;64.07;;;41.35;;
60312;SDS011;46158;52.850;6.970;2023-07-30T06:53:32;62.75;;;40.25;;
60312;SDS011;46158;52.850;6.970;2023-07-30T06:55:58;58.60;;;38.60;;
60312;SDS011;46158;52.850;6.970;2023-07-30T06:58:24;58.85;;;37.88;;
60312;SDS011;46158;52.850;6.970;2023-07-30T07:00:50;58.67;;;36.58;;
60312;SDS011;46158;52.850;6.970;2023-07-30T07:03:15;58.67;;;36.53;;
60312;SDS011;46158;52.850;6.970;2023-07-30T07:05:42;56.63;;;38.60;;
60312;SDS011;46158;52.850;6.970;2023-07-30T07:08:08;58.45;;;36.63;;
60312;SDS011;46158;52.850;6.970;2023-07-30T07:10:33;53.85;;;36.03;;
60312;SDS011;46158;52.850;6.970;2023-07-30T07:12:59;52.78;;;34.65;;
60312;SDS011;46158;52.850;6.970;2023-07-30T07:15:25;53.42;;;33.85;;
60312;SDS011;46158;52.850;6.970;2023-07-30T07:17:50;53.38;;;34.30;;
60312;SDS011;46158;52.850;6.970;2023-07-30T07:20:16;53.17;;;34.65;;
60312;SDS011;46158;52.850;6.970;2023-07-30T07:22:42;52.38;;;33.67;;
60312;SDS011;46158;52.850;6.970;2023-07-30T07:25:08;52.95;;;36.08;;
60312;SDS011;46158;52.850;6.970;2023-07-30T07:27:34;57.22;;;36.75;;
60312;SDS011;46158;52.850;6.970;2023-07-30T07:29:59;51.38;;;32.72;;
60312;SDS011;46158;52.850;6.970;2023-07-30T07:32:25;53.42;;;34.55;;
60312;SDS011;46158;52.850;6.970;2023-07-30T07:34:51;47.00;;;30.85;;
60312;SDS011;46158;52.850;6.970;2023-07-30T07:37:16;48.40;;;30.23;;
60312;SDS011;46158;52.850;6.970;2023-07-30T07:39:44;48.67;;;30.52;;
60312;SDS011;46158;52.850;6.970;2023-07-30T07:42:09;44.35;;;28.02;;
60312;SDS011;46158;52.850;6.970;2023-07-30T07:44:36;47.90;;;29.50;;
60312;SDS011;46158;52.850;6.970;2023-07-30T07:47:01;44.92;;;27.23;;
60312;SDS011;46158;52.850;6.970;2023-07-30T07:49:27;45.80;;;28.77;;
60312;SDS011;46158;52.850;6.970;2023-07-30T07:51:53;45.05;;;27.85;;
60312;SDS011;46158;52.850;6.970;2023-07-30T07:54:19;42.85;;;25.33;;
60312;SDS011;46158;52.850;6.970;2023-07-30T07:56:44;42.72;;;25.30;;
60312;SDS011;46158;52.850;6.970;2023-07-30T07:59:10;41.03;;;24.83;;
60312;SDS011;46158;52.850;6.970;2023-07-30T08:01:36;42.05;;;25.15;;
60312;SDS011;46158;52.850;6.970;2023-07-30T08:04:01;40.15;;;24.33;;
60312;SDS011;46158;52.850;6.970;2023-07-30T08:06:27;42.08;;;24.90;;
60312;SDS011;46158;52.850;6.970;2023-07-30T08:08:53;42.00;;;24.00;;
60312;SDS011;46158;52.850;6.970;2023-07-30T08:11:19;40.60;;;22.50;;
60312;SDS011;46158;52.850;6.970;2023-07-30T08:13:44;38.38;;;23.13;;
60312;SDS011;46158;52.850;6.970;2023-07-30T08:16:11;37.53;;;22.33;;
60312;SDS011;46158;52.850;6.970;2023-07-30T08:18:36;40.33;;;23.17;;
60312;SDS011;46158;52.850;6.970;2023-07-30T08:21:02;38.70;;;22.27;;
60312;SDS011;46158;52.850;6.970;2023-07-30T08:23:28;38.63;;;22.08;;
60312;SDS011;46158;52.850;6.970;2023-07-30T08:25:54;38.50;;;21.23;;
60312;SDS011;46158;52.850;6.970;2023-07-30T08:28:20;36.00;;;20.77;;
60312;SDS011;46158;52.850;6.970;2023-07-30T08:30:45;34.30;;;20.13;;
60312;SDS011;46158;52.850;6.970;2023-07-30T08:33:11;36.03;;;20.08;;
60312;SDS011;46158;52.850;6.970;2023-07-30T08:35:36;34.60;;;19.50;;
60312;SDS011;46158;52.850;6.970;2023-07-30T08:38:02;36.30;;;19.30;;
60312;SDS011;46158;52.850;6.970;2023-07-30T08:40:28;36.03;;;20.35;;
60312;SDS011;46158;52.850;6.970;2023-07-30T08:42:54;34.17;;;18.92;;
60312;SDS011;46158;52.850;6.970;2023-07-30T08:45:20;34.85;;;18.80;;
60312;SDS011;46158;52.850;6.970;2023-07-30T08:47:46;30.88;;;17.20;;
60312;SDS011;46158;52.850;6.970;2023-07-30T08:50:12;35.75;;;18.23;;
60312;SDS011;46158;52.850;6.970;2023-07-30T08:52:38;33.80;;;18.58;;
60312;SDS011;46158;52.850;6.970;2023-07-30T08:55:04;32.97;;;17.25;;
60312;SDS011;46158;52.850;6.970;2023-07-30T08:57:31;32.20;;;18.35;;
60312;SDS011;46158;52.850;6.970;2023-07-30T09:00:04;33.92;;;17.83;;
60312;SDS011;46158;52.850;6.970;2023-07-30T09:05:09;31.65;;;17.35;;
60312;SDS011;46158;52.850;6.970;2023-07-30T09:07:35;32.45;;;17.05;;
60312;SDS011;46158;52.850;6.970;2023-07-30T09:10:01;31.10;;;16.92;;
60312;SDS011;46158;52.850;6.970;2023-07-30T09:12:28;29.55;;;16.23;;
60312;SDS011;46158;52.850;6.970;2023-07-30T09:14:55;30.00;;;15.80;;
60312;SDS011;46158;52.850;6.970;2023-07-30T09:17:21;29.45;;;15.13;;
60312;SDS011;46158;52.850;6.970;2023-07-30T09:19:47;31.17;;;14.95;;
60312;SDS011;46158;52.850;6.970;2023-07-30T09:22:36;29.30;;;15.38;;
60312;SDS011;46158;52.850;6.970;2023-07-30T09:25:04;29.02;;;13.77;;
60312;SDS011;46158;52.850;6.970;2023-07-30T09:27:30;30.33;;;13.50;;
60312;SDS011;46158;52.850;6.970;2023-07-30T09:29:57;29.05;;;14.70;;
60312;SDS011;46158;52.850;6.970;2023-07-30T09:32:34;28.20;;;14.57;;
60312;SDS011;46158;52.850;6.970;2023-07-30T09:35:04;28.85;;;13.45;;
60312;SDS011;46158;52.850;6.970;2023-07-30T09:37:40;27.25;;;13.27;;
60312;SDS011;46158;52.850;6.970;2023-07-30T09:40:06;24.73;;;12.50;;
60312;SDS011;46158;52.850;6.970;2023-07-30T09:42:34;26.38;;;12.30;;
60312;SDS011;46158;52.850;6.970;2023-07-30T09:45:04;25.77;;;12.38;;
60312;SDS011;46158;52.850;6.970;2023-07-30T09:47:33;26.38;;;12.38;;
60312;SDS011;46158;52.850;6.970;2023-07-30T09:50:02;27.45;;;12.93;;
60312;SDS011;46158;52.850;6.970;2023-07-30T09:52:29;26.63;;;11.90;;
60312;SDS011;46158;52.850;6.970;2023-07-30T09:54:55;25.55;;;12.57;;
60312;SDS011;46158;52.850;6.970;2023-07-30T09:57:22;24.65;;;11.52;;
60312;SDS011;46158;52.850;6.970;2023-07-30T09:59:48;24.50;;;11.25;;
60312;SDS011;46158;52.850;6.970;2023-07-30T10:02:14;25.98;;;11.80;;
60312;SDS011;46158;52.850;6.970;2023-07-30T10:04:43;26.23;;;12.13;;
60312;SDS011;46158;52.850;6.970;2023-07-30T10:07:14;26.15;;;11.63;;
60312;SDS011;46158;52.850;6.970;2023-07-30T10:09:45;25.75;;;11.18;;
60312;SDS011;46158;52.850;6.970;2023-07-30T10:12:15;25.08;;;11.13;;
60312;SDS011;46158;52.850;6.970;2023-07-30T10:14:43;25.23;;;11.13;;
60312;SDS011;46158;52.850;6.970;2023-07-30T10:17:10;25.60;;;11.48;;
60312;SDS011;46158;52.850;6.970;2023-07-30T10:19:36;24.67;;;11.23;;
60312;SDS011;46158;52.850;6.970;2023-07-30T10:25:03;24.52;;;10.63;;
60312;SDS011;46158;52.850;6.970;2023-07-30T10:27:36;23.98;;;10.25;;
60312;SDS011;46158;52.850;6.970;2023-07-30T10:30:13;24.75;;;10.40;;
60312;SDS011;46158;52.850;6.970;2023-07-30T10:32:41;21.50;;;8.68;;
60312;SDS011;46158;52.850;6.970;2023-07-30T10:38:19;22.50;;;9.18;;
60312;SDS011;46158;52.850;6.970;2023-07-30T10:41:04;22.50;;;8.80;;
60312;SDS011;46158;52.850;6.970;2023-07-30T10:43:37;22.02;;;8.38;;
60312;SDS011;46158;52.850;6.970;2023-07-30T10:46:08;22.67;;;8.75;;
60312;SDS011;46158;52.850;6.970;2023-07-30T10:48:37;24.10;;;9.02;;
60312;SDS011;46158;52.850;6.970;2023-07-30T10:51:10;22.60;;;8.50;;
60312;SDS011;46158;52.850;6.970;2023-07-30T10:53:37;21.63;;;8.70;;
60312;SDS011;46158;52.850;6.970;2023-07-30T10:56:09;21.33;;;8.65;;
60312;SDS011;46158;52.850;6.970;2023-07-30T10:58:36;20.58;;;8.82;;
60312;SDS011;46158;52.850;6.970;2023-07-30T11:01:02;22.10;;;8.55;;
60312;SDS011;46158;52.850;6.970;2023-07-30T11:03:29;22.08;;;8.48;;
60312;SDS011;46158;52.850;6.970;2023-07-30T11:05:55;21.88;;;8.27;;
60312;SDS011;46158;52.850;6.970;2023-07-30T11:08:31;21.80;;;8.43;;
60312;SDS011;46158;52.850;6.970;2023-07-30T11:11:05;20.80;;;7.97;;
60312;SDS011;46158;52.850;6.970;2023-07-30T11:13:42;22.42;;;8.13;;
60312;SDS011;46158;52.850;6.970;2023-07-30T11:16:11;21.42;;;7.85;;
60312;SDS011;46158;52.850;6.970;2023-07-30T11:18:37;20.73;;;7.93;;
60312;SDS011;46158;52.850;6.970;2023-07-30T11:21:04;20.88;;;8.20;;
60312;SDS011;46158;52.850;6.970;2023-07-30T11:23:31;21.15;;;8.00;;
60312;SDS011;46158;52.850;6.970;2023-07-30T11:25:57;21.88;;;7.53;;
60312;SDS011;46158;52.850;6.970;2023-07-30T11:30:59;19.83;;;6.90;;
60312;SDS011;46158;52.850;6.970;2023-07-30T11:33:27;19.15;;;6.65;;
60312;SDS011;46158;52.850;6.970;2023-07-30T11:35:54;19.48;;;6.45;;
60312;SDS011;46158;52.850;6.970;2023-07-30T11:38:22;20.38;;;6.70;;
60312;SDS011;46158;52.850;6.970;2023-07-30T11:40:52;19.80;;;6.82;;
60312;SDS011;46158;52.850;6.970;2023-07-30T11:43:20;19.98;;;6.25;;
60312;SDS011;46158;52.850;6.970;2023-07-30T11:45:49;19.05;;;6.53;;
60312;SDS011;46158;52.850;6.970;2023-07-30T11:48:31;18.95;;;6.80;;
60312;SDS011;46158;52.850;6.970;2023-07-30T11:50:57;20.27;;;6.63;;
60312;SDS011;46158;52.850;6.970;2023-07-30T11:53:26;18.92;;;6.10;;
60312;SDS011;46158;52.850;6.970;2023-07-30T11:58:45;18.02;;;6.00;;
60312;SDS011;46158;52.850;6.970;2023-07-30T12:01:11;19.98;;;6.28;;
60312;SDS011;46158;52.850;6.970;2023-07-30T12:03:37;17.83;;;5.70;;
60312;SDS011;46158;52.850;6.970;2023-07-30T12:06:06;17.52;;;5.90;;
60312;SDS011;46158;52.850;6.970;2023-07-30T12:08:34;19.40;;;6.57;;
60312;SDS011;46158;52.850;6.970;2023-07-30T12:11:04;18.48;;;5.70;;
60312;SDS011;46158;52.850;6.970;2023-07-30T12:15:57;16.48;;;5.30;;
60312;SDS011;46158;52.850;6.970;2023-07-30T12:18:23;17.92;;;5.82;;
60312;SDS011;46158;52.850;6.970;2023-07-30T12:20:51;16.60;;;5.50;;
60312;SDS011;46158;52.850;6.970;2023-07-30T12:23:17;17.55;;;5.47;;
60312;SDS011;46158;52.850;6.970;2023-07-30T12:25:43;17.05;;;5.10;;
60312;SDS011;46158;52.850;6.970;2023-07-30T12:28:09;14.70;;;4.80;;
60312;SDS011;46158;52.850;6.970;2023-07-30T12:30:35;17.08;;;5.45;;
60312;SDS011;46158;52.850;6.970;2023-07-30T12:33:02;15.85;;;5.20;;
60312;SDS011;46158;52.850;6.970;2023-07-30T12:35:28;18.70;;;5.50;;
60312;SDS011;46158;52.850;6.970;2023-07-30T12:37:54;17.92;;;5.32;;
60312;SDS011;46158;52.850;6.970;2023-07-30T12:40:20;17.75;;;5.50;;
60312;SDS011;46158;52.850;6.970;2023-07-30T12:42:46;15.32;;;5.28;;
60312;SDS011;46158;52.850;6.970;2023-07-30T12:45:11;16.73;;;5.10;;
60312;SDS011;46158;52.850;6.970;2023-07-30T12:47:37;17.05;;;5.60;;
60312;SDS011;46158;52.850;6.970;2023-07-30T12:50:03;17.95;;;4.97;;
60312;SDS011;46158;52.850;6.970;2023-07-30T12:52:30;16.13;;;5.10;;
60312;SDS011;46158;52.850;6.970;2023-07-30T12:54:57;15.88;;;4.93;;
60312;SDS011;46158;52.850;6.970;2023-07-30T12:57:23;16.05;;;5.20;;
60312;SDS011;46158;52.850;6.970;2023-07-30T12:59:49;16.58;;;4.65;;
60312;SDS011;46158;52.850;6.970;2023-07-30T13:02:14;17.83;;;4.95;;
60312;SDS011;46158;52.850;6.970;2023-07-30T13:04:40;13.93;;;4.47;;
60312;SDS011;46158;52.850;6.970;2023-07-30T13:07:06;13.93;;;4.63;;
60312;SDS011;46158;52.850;6.970;2023-07-30T13:09:31;20.95;;;4.72;;
60312;SDS011;46158;52.850;6.970;2023-07-30T13:11:57;13.43;;;4.32;;
60312;SDS011;46158;52.850;6.970;2023-07-30T13:14:23;15.70;;;4.93;;
60312;SDS011;46158;52.850;6.970;2023-07-30T13:16:49;15.10;;;4.43;;
60312;SDS011;46158;52.850;6.970;2023-07-30T13:19:14;15.00;;;4.40;;
60312;SDS011;46158;52.850;6.970;2023-07-30T13:21:40;12.55;;;4.15;;
60312;SDS011;46158;52.850;6.970;2023-07-30T13:24:06;12.18;;;4.13;;
60312;SDS011;46158;52.850;6.970;2023-07-30T13:26:31;14.80;;;4.40;;
60312;SDS011;46158;52.850;6.970;2023-07-30T13:28:57;15.50;;;4.57;;
60312;SDS011;46158;52.850;6.970;2023-07-30T13:31:22;15.07;;;4.43;;
60312;SDS011;46158;52.850;6.970;2023-07-30T13:33:48;12.80;;;3.88;;
60312;SDS011;46158;52.850;6.970;2023-07-30T13:36:14;16.17;;;4.22;;
60312;SDS011;46158;52.850;6.970;2023-07-30T13:38:40;14.30;;;4.20;;
60312;SDS011;46158;52.850;6.970;2023-07-30T13:41:06;14.18;;;4.35;;
60312;SDS011;46158;52.850;6.970;2023-07-30T13:43:32;11.40;;;3.88;;
60312;SDS011;46158;52.850;6.970;2023-07-30T13:45:57;12.32;;;3.90;;
60312;SDS011;46158;52.850;6.970;2023-07-30T13:48:24;13.23;;;4.00;;
60312;SDS011;46158;52.850;6.970;2023-07-30T13:50:50;11.68;;;3.70;;
60312;SDS011;46158;52.850;6.970;2023-07-30T13:53:16;14.32;;;3.90;;
60312;SDS011;46158;52.850;6.970;2023-07-30T13:55:41;12.85;;;3.92;;
60312;SDS011;46158;52.850;6.970;2023-07-30T13:58:07;15.60;;;4.05;;
60312;SDS011;46158;52.850;6.970;2023-07-30T14:00:33;12.73;;;3.70;;
60312;SDS011;46158;52.850;6.970;2023-07-30T14:02:59;9.90;;;3.20;;
60312;SDS011;46158;52.850;6.970;2023-07-30T14:05:25;13.68;;;3.75;;
60312;SDS011;46158;52.850;6.970;2023-07-30T14:07:53;11.75;;;3.60;;
60312;SDS011;46158;52.850;6.970;2023-07-30T14:10:21;13.23;;;3.45;;
60312;SDS011;46158;52.850;6.970;2023-07-30T14:12:47;11.95;;;3.55;;
60312;SDS011;46158;52.850;6.970;2023-07-30T14:15:13;14.73;;;3.70;;
60312;SDS011;46158;52.850;6.970;2023-07-30T14:17:40;11.05;;;3.50;;
60312;SDS011;46158;52.850;6.970;2023-07-30T14:20:06;10.07;;;3.38;;
60312;SDS011;46158;52.850;6.970;2023-07-30T14:22:32;11.95;;;3.38;;
60312;SDS011;46158;52.850;6.970;2023-07-30T14:24:58;9.60;;;3.03;;
60312;SDS011;46158;52.850;6.970;2023-07-30T14:27:24;11.68;;;3.25;;
60312;SDS011;46158;52.850;6.970;2023-07-30T14:29:51;13.85;;;3.45;;
60312;SDS011;46158;52.850;6.970;2023-07-30T14:32:20;10.45;;;2.88;;
60312;SDS011;46158;52.850;6.970;2023-07-30T14:34:46;10.48;;;3.20;;
60312;SDS011;46158;52.850;6.970;2023-07-30T14:37:12;10.05;;;2.90;;
60312;SDS011;46158;52.850;6.970;2023-07-30T14:39:37;9.38;;;2.90;;
60312;SDS011;46158;52.850;6.970;2023-07-30T14:42:05;8.63;;;2.83;;
60312;SDS011;46158;52.850;6.970;2023-07-30T14:44:30;11.05;;;3.08;;
60312;SDS011;46158;52.850;6.970;2023-07-30T14:46:56;11.73;;;3.08;;
60312;SDS011;46158;52.850;6.970;2023-07-30T14:49:23;8.68;;;3.00;;